Organisasjoner
Antall som skal vises: 
Nr. Nettlenke Treff
1   Link   AOPA
1616
2   Link   AOPA Australia
1915
3   Link   AOPA Danmark
2044
4   Link   AOPA Nederland
1676
5   Link   AOPA Norway
1948
6   Link   AOPA Sveits
1712
7   Link   AOPA Tyskland
1656
8   Link   EAA
1635
9   Link   EAA Norway
2218
10   Link   Federation Aeronautique Internationale
1599
11   Link   IAOPA
1656
12   Link   Kongelig Dansk Aeroklub
1793
13   Link   Kungliga Svenska Aeroklubben
2181
14   Link   Norsk Aero Klubb
1766
15   Link   PPL-IR
2573
16   Link   Suomen Ilmailuliitto
1655
17   Link   X-Prize
1639
 
METAR
2018/10/18 09:50 ENCN 180950Z 22003KT CAVOK 10/06 Q1023
TAF
2018/10/18 09:38 TAF ENCN 180800Z 1809/1818 28008KT CAVOK
LN-KFK
Operativ VFR-natt
VFR dag
07:29 - 18:56
Brannvakt
Inaktiv
Banner
Banner
Banner
Banner
Banner